createdAt,value
2022-10-26T00:00:43.673Z,5.97
2022-10-26T00:03:17.106Z,4.95
2022-10-26T00:05:49.384Z,4.30
2022-10-26T00:08:21.685Z,4.57
2022-10-26T00:10:57.262Z,4.78
2022-10-26T00:13:29.614Z,4.93
2022-10-26T00:16:07.047Z,4.80
2022-10-26T00:18:40.612Z,4.55
2022-10-26T00:21:13.515Z,5.07
2022-10-26T00:23:45.761Z,4.60
2022-10-26T00:26:18.185Z,4.35
2022-10-26T00:28:53.026Z,4.82
2022-10-26T00:31:25.368Z,4.40
2022-10-26T00:33:58.371Z,4.47
2022-10-26T00:36:30.687Z,4.82
2022-10-26T00:39:03.641Z,5.28
2022-10-26T00:41:35.987Z,4.15
2022-10-26T00:45:01.083Z,3.95
2022-10-26T00:47:38.435Z,3.58
2022-10-26T00:50:17.754Z,4.07
2022-10-26T00:52:52.166Z,4.60
2022-10-26T00:55:29.241Z,3.72
2022-10-26T00:58:05.770Z,4.53
2022-10-26T01:00:40.638Z,4.40
2022-10-26T01:03:13.013Z,4.00
2022-10-26T01:05:48.976Z,4.10
2022-10-26T01:08:21.351Z,4.10
2022-10-26T01:10:54.332Z,3.83
2022-10-26T01:13:29.903Z,3.45
2022-10-26T01:16:15.433Z,3.90
2022-10-26T01:18:59.203Z,3.38
2022-10-26T01:21:52.837Z,3.72
2022-10-26T01:25:02.109Z,3.40
2022-10-26T01:27:36.138Z,3.42
2022-10-26T01:30:26.576Z,3.50
2022-10-26T01:33:24.952Z,3.67
2022-10-26T01:36:09.664Z,2.90
2022-10-26T01:38:55.849Z,3.90
2022-10-26T01:41:32.251Z,5.28
2022-10-26T01:44:09.002Z,3.92
2022-10-26T01:46:45.749Z,3.80
2022-10-26T01:49:22.724Z,3.47
2022-10-26T01:51:55.009Z,5.22
2022-10-26T01:54:28.568Z,5.43
2022-10-26T01:57:04.793Z,4.57
2022-10-26T02:00:02.106Z,4.65
2022-10-26T02:02:59.026Z,5.22
2022-10-26T02:06:04.085Z,5.20
2022-10-26T02:08:56.795Z,5.05
2022-10-26T02:11:37.969Z,5.32
2022-10-26T02:14:18.111Z,5.13
2022-10-26T02:16:57.434Z,3.83
2022-10-26T02:19:37.223Z,4.20
2022-10-26T02:24:46.833Z,4.85
2022-10-26T02:27:24.047Z,3.78
2022-10-26T02:29:57.902Z,4.63
2022-10-26T02:32:35.236Z,3.30
2022-10-26T02:35:09.511Z,3.85
2022-10-26T02:37:44.137Z,3.75
2022-10-26T02:40:21.019Z,3.80
2022-10-26T02:42:54.823Z,3.03
2022-10-26T02:45:32.787Z,4.82
2022-10-26T02:48:06.415Z,4.68
2022-10-26T02:50:48.442Z,5.50
2022-10-26T02:53:26.284Z,4.70
2022-10-26T02:56:03.869Z,4.47
2022-10-26T02:58:42.756Z,4.80
2022-10-26T03:01:15.557Z,4.70
2022-10-26T03:03:48.482Z,3.72
2022-10-26T03:06:22.577Z,4.57
2022-10-26T03:08:54.995Z,5.10
2022-10-26T03:11:27.274Z,11.52
2022-10-26T03:13:59.630Z,4.20
2022-10-26T03:16:31.952Z,3.80
2022-10-26T03:19:04.950Z,4.22
2022-10-26T03:21:37.917Z,5.90
2022-10-26T03:24:10.274Z,4.28
2022-10-26T03:26:42.561Z,3.63
2022-10-26T03:29:14.839Z,3.40
2022-10-26T03:31:48.211Z,4.13
2022-10-26T03:34:20.527Z,5.30
2022-10-26T03:36:53.526Z,4.45
2022-10-26T03:39:25.835Z,3.08
2022-10-26T03:41:58.851Z,4.10
2022-10-26T03:44:31.192Z,3.83
2022-10-26T03:47:03.477Z,4.22
2022-10-26T03:49:35.805Z,4.13
2022-10-26T03:52:08.771Z,4.40
2022-10-26T03:54:41.029Z,3.90
2022-10-26T03:57:13.307Z,4.20
2022-10-26T03:59:45.618Z,4.13
2022-10-26T04:02:17.914Z,3.17
2022-10-26T04:04:50.260Z,4.38
2022-10-26T04:07:23.309Z,5.40
2022-10-26T04:09:55.640Z,5.55
2022-10-26T04:12:27.983Z,5.15
2022-10-26T04:15:00.461Z,4.55
2022-10-26T04:17:32.847Z,3.80
2022-10-26T04:20:06.248Z,3.60
2022-10-26T04:22:39.248Z,4.70
2022-10-26T04:25:12.851Z,5.80
2022-10-26T04:27:45.184Z,5.50
2022-10-26T04:30:17.590Z,4.55
2022-10-26T04:32:50.095Z,3.95
2022-10-26T04:35:22.777Z,3.90
2022-10-26T04:37:58.756Z,3.67
2022-10-26T04:40:32.657Z,3.95
2022-10-26T04:43:04.971Z,3.70
2022-10-26T04:45:37.267Z,4.28
2022-10-26T04:48:11.549Z,3.60
2022-10-26T04:50:43.905Z,4.32
2022-10-26T04:53:16.990Z,4.53
2022-10-26T04:55:49.242Z,4.50
2022-10-26T04:58:21.567Z,4.45
2022-10-26T05:00:54.210Z,5.20
2022-10-26T05:03:26.507Z,4.75
2022-10-26T05:05:59.092Z,5.00
2022-10-26T05:08:32.063Z,4.70
2022-10-26T05:11:04.648Z,5.03
2022-10-26T05:13:36.926Z,5.13
2022-10-26T05:16:09.258Z,6.07
2022-10-26T05:18:41.752Z,5.80
2022-10-26T05:21:18.646Z,4.60
2022-10-26T05:23:53.187Z,5.43
2022-10-26T05:26:25.665Z,4.53
2022-10-26T05:28:58.018Z,4.75
2022-10-26T05:31:30.319Z,5.07
2022-10-26T05:34:02.888Z,4.35
2022-10-26T05:36:35.262Z,4.45
2022-10-26T05:39:08.391Z,4.25
2022-10-26T05:41:40.755Z,4.70
2022-10-26T05:44:13.043Z,4.68
2022-10-26T05:46:47.266Z,4.30
2022-10-26T05:49:19.580Z,5.45
2022-10-26T05:51:51.849Z,5.00
2022-10-26T05:54:24.815Z,3.78
2022-10-26T05:56:57.658Z,3.90
2022-10-26T05:59:30.750Z,4.03
2022-10-26T06:02:15.747Z,3.85
2022-10-26T06:04:49.037Z,3.95
2022-10-26T06:07:22.025Z,3.83
2022-10-26T06:09:55.648Z,3.35
2022-10-26T06:12:28.559Z,3.55
2022-10-26T06:15:01.432Z,4.80
2022-10-26T06:17:46.137Z,4.63
2022-10-26T06:20:36.206Z,4.45
2022-10-26T06:23:31.235Z,5.65
2022-10-26T06:26:13.895Z,4.53
2022-10-26T06:28:53.716Z,6.85
2022-10-26T06:33:59.928Z,7.07
2022-10-26T06:36:32.919Z,7.55
2022-10-26T06:39:08.936Z,8.45
2022-10-26T06:41:42.676Z,8.10
2022-10-26T06:44:23.507Z,5.93
2022-10-26T06:47:05.533Z,12.95
2022-10-26T06:49:41.357Z,11.02
2022-10-26T06:52:18.084Z,10.88
2022-10-26T06:54:52.709Z,4.63
2022-10-26T06:57:32.365Z,2.78
2022-10-26T07:02:38.281Z,2.90
2022-10-26T07:05:12.286Z,2.83
2022-10-26T07:07:47.030Z,3.20
2022-10-26T07:10:19.621Z,2.80
2022-10-26T07:12:52.728Z,3.50
2022-10-26T07:15:25.068Z,3.05
2022-10-26T07:17:57.365Z,2.80
2022-10-26T07:20:29.691Z,2.65
2022-10-26T07:23:02.259Z,2.38
2022-10-26T07:25:38.307Z,3.28
2022-10-26T07:28:11.448Z,3.10
2022-10-26T07:30:43.775Z,2.53
2022-10-26T07:33:16.141Z,2.40
2022-10-26T07:35:48.486Z,2.60
2022-10-26T07:38:20.801Z,2.88
2022-10-26T07:40:54.526Z,2.50
2022-10-26T07:43:27.519Z,2.17
2022-10-26T07:45:59.882Z,2.28
2022-10-26T07:48:32.515Z,2.67
2022-10-26T07:51:05.133Z,2.53
2022-10-26T07:53:37.473Z,2.05
2022-10-26T07:56:10.615Z,2.35
2022-10-26T07:58:43.569Z,2.17
2022-10-26T08:01:16.246Z,2.00
2022-10-26T08:03:52.337Z,2.10
2022-10-26T08:06:24.727Z,2.85
2022-10-26T08:08:56.998Z,2.67
2022-10-26T08:11:29.342Z,2.70
2022-10-26T08:14:03.871Z,2.42
2022-10-26T08:16:39.350Z,2.65
2022-10-26T08:19:11.739Z,2.40
2022-10-26T08:21:44.107Z,2.05
2022-10-26T08:24:16.378Z,2.30
2022-10-26T08:26:48.742Z,2.38
2022-10-26T08:29:21.683Z,2.30
2022-10-26T08:31:54.013Z,2.70
2022-10-26T08:34:26.314Z,2.35
2022-10-26T08:36:58.703Z,1.90
2022-10-26T08:39:31.041Z,1.98
2022-10-26T08:42:10.051Z,2.08
2022-10-26T08:44:46.309Z,2.70
2022-10-26T08:47:21.194Z,2.30
2022-10-26T08:49:59.648Z,2.50
2022-10-26T08:52:38.346Z,2.25
2022-10-26T08:55:15.806Z,2.43
2022-10-26T08:57:50.062Z,2.30
2022-10-26T09:00:26.300Z,2.63
2022-10-26T09:02:58.666Z,2.45
2022-10-26T09:05:43.495Z,2.65
2022-10-26T09:08:25.443Z,2.40
2022-10-26T09:11:07.734Z,2.40
2022-10-26T09:13:56.412Z,2.28
2022-10-26T09:16:40.903Z,2.97
2022-10-26T09:19:51.599Z,2.30
2022-10-26T09:22:30.618Z,2.97
2022-10-26T09:25:12.850Z,2.67
2022-10-26T09:27:49.192Z,2.63
2022-10-26T09:30:22.327Z,2.28
2022-10-26T09:32:58.699Z,3.20
2022-10-26T09:35:42.931Z,2.65
2022-10-26T09:38:23.630Z,2.58
2022-10-26T09:41:01.877Z,3.35
2022-10-26T09:43:42.559Z,3.08
2022-10-26T09:46:20.807Z,2.50
2022-10-26T09:48:57.828Z,3.33
2022-10-26T09:51:30.341Z,3.00
2022-10-26T09:54:13.313Z,3.00
2022-10-26T09:56:49.823Z,3.88
2022-10-26T09:59:24.018Z,3.13
2022-10-26T10:01:56.394Z,2.63
2022-10-26T10:04:33.035Z,2.88
2022-10-26T10:07:18.149Z,2.60
2022-10-26T10:10:07.351Z,3.20
2022-10-26T10:12:39.774Z,3.25
2022-10-26T10:15:21.145Z,3.78
2022-10-26T10:17:55.730Z,2.42
2022-10-26T10:20:31.806Z,2.50
2022-10-26T10:23:04.409Z,2.35
2022-10-26T10:25:39.187Z,2.33
2022-10-26T10:31:00.315Z,2.45
2022-10-26T10:33:38.125Z,1.90
2022-10-26T10:36:16.170Z,2.30
2022-10-26T10:38:50.631Z,1.90
2022-10-26T10:41:27.926Z,2.60
2022-10-26T10:44:07.218Z,2.05
2022-10-26T10:49:19.926Z,1.90
2022-10-26T10:51:53.691Z,2.00
2022-10-26T10:54:29.570Z,2.22
2022-10-26T10:57:12.871Z,1.95
2022-10-26T10:59:55.531Z,2.65
2022-10-26T11:02:51.644Z,2.63
2022-10-26T11:05:43.925Z,2.67
2022-10-26T11:08:23.027Z,1.77
2022-10-26T11:11:02.827Z,2.20
2022-10-26T11:13:38.766Z,1.33
2022-10-26T11:16:16.333Z,2.13
2022-10-26T11:18:54.558Z,1.77
2022-10-26T11:21:28.948Z,1.80
2022-10-26T11:24:12.632Z,2.35
2022-10-26T11:26:53.235Z,1.70
2022-10-26T11:29:40.961Z,2.28
2022-10-26T11:32:19.026Z,1.35
2022-10-26T11:34:58.055Z,1.63
2022-10-26T11:37:36.792Z,3.40
2022-10-26T11:40:22.641Z,1.40
2022-10-26T11:43:05.182Z,2.17
2022-10-26T11:45:41.719Z,1.98
2022-10-26T11:48:19.852Z,1.92
2022-10-26T11:50:57.168Z,2.35
2022-10-26T11:53:36.051Z,1.10
2022-10-26T11:56:17.828Z,1.92
2022-10-26T11:58:50.723Z,1.15
2022-10-26T12:01:24.115Z,1.25
2022-10-26T12:04:00.706Z,1.40
2022-10-26T12:06:35.030Z,1.20
2022-10-26T12:09:13.629Z,1.17
2022-10-26T12:11:50.174Z,0.95
2022-10-26T12:14:29.024Z,0.90
2022-10-26T12:17:09.560Z,1.05
2022-10-26T12:19:49.685Z,0.65
2022-10-26T12:22:36.626Z,0.45
2022-10-26T12:25:20.061Z,0.50
2022-10-26T12:27:55.579Z,0.60
2022-10-26T12:30:30.188Z,0.60
2022-10-26T12:33:04.615Z,0.60
2022-10-26T12:35:41.995Z,0.50
2022-10-26T12:38:49.779Z,0.70
2022-10-26T12:41:26.062Z,0.70
2022-10-26T12:44:22.905Z,0.55
2022-10-26T12:46:55.900Z,0.70
2022-10-26T12:49:57.883Z,0.60
2022-10-26T12:52:49.870Z,0.88
2022-10-26T12:56:01.220Z,0.50
2022-10-26T12:59:06.671Z,0.70
2022-10-26T13:02:26.004Z,0.85
2022-10-26T13:05:34.927Z,0.30
2022-10-26T13:08:10.093Z,0.70
2022-10-26T13:11:00.041Z,0.50
2022-10-26T13:13:34.689Z,0.30
2022-10-26T13:16:11.297Z,0.35
2022-10-26T13:18:47.775Z,0.35
2022-10-26T13:21:22.189Z,0.40
2022-10-26T13:24:00.922Z,0.50
2022-10-26T13:27:11.662Z,0.40
2022-10-26T13:30:17.516Z,0.65
2022-10-26T13:32:54.067Z,0.50
2022-10-26T13:35:27.837Z,1.05
2022-10-26T13:38:06.067Z,0.80
2022-10-26T13:40:39.107Z,0.70
2022-10-26T13:43:19.352Z,1.15
2022-10-26T13:45:55.008Z,1.35
2022-10-26T13:48:36.447Z,1.00
2022-10-26T13:51:21.110Z,1.73
2022-10-26T13:53:59.982Z,0.73
2022-10-26T13:56:35.568Z,0.70
2022-10-26T13:59:10.526Z,0.63
2022-10-26T14:01:43.070Z,0.75
2022-10-26T14:04:16.363Z,0.73
2022-10-26T14:06:51.379Z,0.80
2022-10-26T14:09:24.118Z,0.75
2022-10-26T14:11:59.395Z,0.60
2022-10-26T14:14:35.959Z,0.50
2022-10-26T14:17:19.412Z,0.88
2022-10-26T14:19:52.374Z,0.68
2022-10-26T14:22:27.774Z,0.73
2022-10-26T14:25:00.974Z,1.35
2022-10-26T14:27:38.704Z,0.70
2022-10-26T14:30:23.459Z,0.80
2022-10-26T14:32:56.715Z,1.00
2022-10-26T14:35:35.307Z,1.02
2022-10-26T14:38:19.616Z,0.80
2022-10-26T14:40:54.931Z,0.90
2022-10-26T14:43:27.414Z,1.10
2022-10-26T14:45:59.871Z,1.23
2022-10-26T14:48:33.828Z,1.05
2022-10-26T14:51:15.315Z,1.30
2022-10-26T14:53:50.406Z,1.20
2022-10-26T14:56:37.797Z,1.13
2022-10-26T14:59:12.359Z,0.93
2022-10-26T15:01:50.644Z,0.90
2022-10-26T15:04:30.002Z,1.15
2022-10-26T15:07:19.957Z,1.00
2022-10-26T15:09:53.151Z,0.80
2022-10-26T15:12:32.132Z,0.98
2022-10-26T15:15:19.287Z,1.38
2022-10-26T15:17:54.126Z,1.13
2022-10-26T15:20:28.629Z,1.05
2022-10-26T15:23:03.330Z,6.68
2022-10-26T15:25:50.440Z,1.75
2022-10-26T15:28:25.221Z,1.77
2022-10-26T15:31:02.564Z,1.30
2022-10-26T15:33:35.709Z,1.45
2022-10-26T15:36:14.166Z,1.65
2022-10-26T15:38:47.759Z,2.05
2022-10-26T15:41:25.045Z,1.77
2022-10-26T15:44:00.595Z,1.40
2022-10-26T15:46:35.523Z,2.60
2022-10-26T15:49:14.811Z,1.67
2022-10-26T15:51:48.640Z,1.73
2022-10-26T15:54:20.985Z,4.45
2022-10-26T15:56:55.425Z,4.07
2022-10-26T15:59:27.903Z,3.25
2022-10-26T16:02:00.383Z,3.35
2022-10-26T16:04:32.832Z,3.03
2022-10-26T16:07:06.820Z,3.13
2022-10-26T16:09:40.183Z,3.60
2022-10-26T16:12:13.742Z,2.20
2022-10-26T16:15:04.247Z,2.35
2022-10-26T16:17:37.583Z,2.70
2022-10-26T16:20:14.744Z,2.15
2022-10-26T16:22:47.614Z,1.98
2022-10-26T16:25:23.235Z,1.90
2022-10-26T16:27:56.292Z,2.75
2022-10-26T16:30:30.550Z,2.25
2022-10-26T16:33:03.147Z,2.33
2022-10-26T16:35:35.487Z,2.10
2022-10-26T16:38:07.814Z,2.25
2022-10-26T16:40:42.632Z,2.13
2022-10-26T16:43:15.730Z,1.88
2022-10-26T16:46:07.748Z,2.83
2022-10-26T16:48:41.847Z,2.65
2022-10-26T16:51:16.519Z,2.15
2022-10-26T16:53:50.715Z,2.80
2022-10-26T16:56:25.512Z,2.67
2022-10-26T16:58:58.499Z,2.10
2022-10-26T17:01:31.622Z,2.55
2022-10-26T17:06:41.475Z,2.10
2022-10-26T17:09:14.509Z,2.10
2022-10-26T17:11:46.852Z,1.48
2022-10-26T17:14:19.811Z,1.73
2022-10-26T17:16:52.147Z,3.25
2022-10-26T17:19:24.617Z,2.20
2022-10-26T17:21:56.991Z,7.70
2022-10-26T17:24:29.299Z,4.88
2022-10-26T17:27:01.794Z,3.40
2022-10-26T17:29:34.801Z,2.45
2022-10-26T17:32:07.138Z,3.38
2022-10-26T17:34:39.450Z,2.70
2022-10-26T17:37:11.767Z,2.58
2022-10-26T17:39:44.124Z,2.67
2022-10-26T17:42:16.480Z,12.05
2022-10-26T17:44:49.464Z,10.00
2022-10-26T17:47:21.825Z,4.10
2022-10-26T17:49:54.260Z,3.17
2022-10-26T17:52:26.701Z,2.53
2022-10-26T17:55:01.790Z,2.40
2022-10-26T17:57:35.213Z,2.15
2022-10-26T18:00:09.646Z,2.17
2022-10-26T18:02:47.720Z,2.33
2022-10-26T18:05:20.225Z,8.30
2022-10-26T18:07:52.739Z,3.83
2022-10-26T18:10:37.575Z,2.42
2022-10-26T18:13:10.081Z,4.10
2022-10-26T18:15:43.422Z,24.95
2022-10-26T18:18:15.869Z,23.20
2022-10-26T18:20:48.223Z,3.85
2022-10-26T18:23:20.540Z,6.85
2022-10-26T18:26:00.188Z,3.13
2022-10-26T18:31:08.895Z,1.98
2022-10-26T18:33:41.697Z,2.38
2022-10-26T18:36:15.722Z,2.67
2022-10-26T18:38:48.713Z,2.33
2022-10-26T18:41:22.380Z,2.20
2022-10-26T18:43:58.075Z,2.35
2022-10-26T18:46:38.775Z,2.35
2022-10-26T18:49:13.250Z,2.42
2022-10-26T18:51:45.876Z,2.15
2022-10-26T18:54:18.190Z,2.08
2022-10-26T18:56:50.535Z,2.10
2022-10-26T18:59:22.876Z,1.98
2022-10-26T19:01:55.944Z,2.60
2022-10-26T19:04:28.433Z,2.40
2022-10-26T19:07:00.871Z,3.13
2022-10-26T19:09:33.254Z,2.38
2022-10-26T19:12:06.019Z,2.33
2022-10-26T19:14:38.468Z,2.92
2022-10-26T19:17:11.427Z,2.38
2022-10-26T19:19:43.760Z,3.80
2022-10-26T19:22:16.074Z,4.90
2022-10-26T19:24:48.445Z,6.57
2022-10-26T19:27:20.751Z,5.57
2022-10-26T19:29:53.259Z,6.03
2022-10-26T19:32:27.639Z,5.22
2022-10-26T19:35:00.122Z,5.63
2022-10-26T19:37:32.456Z,3.88
2022-10-26T19:40:05.611Z,3.30
2022-10-26T19:42:37.958Z,3.08
2022-10-26T19:45:10.654Z,3.15
2022-10-26T19:47:43.595Z,7.78
2022-10-26T19:50:16.159Z,2.70
2022-10-26T19:52:48.644Z,1.60
2022-10-26T19:55:21.096Z,2.47
2022-10-26T19:57:53.346Z,4.07
2022-10-26T20:00:25.676Z,3.25
2022-10-26T20:02:58.666Z,2.97
2022-10-26T20:05:31.338Z,3.75
2022-10-26T20:08:04.916Z,4.32
2022-10-26T20:10:40.974Z,9.23
2022-10-26T20:13:14.130Z,10.65
2022-10-26T20:15:46.489Z,9.73
2022-10-26T20:18:19.637Z,18.20
2022-10-26T20:20:51.979Z,12.30
2022-10-26T20:23:24.350Z,14.75
2022-10-26T20:25:59.591Z,9.15
2022-10-26T20:28:32.009Z,8.25
2022-10-26T20:31:04.663Z,7.28
2022-10-26T20:33:37.754Z,5.60
2022-10-26T20:36:10.270Z,5.50
2022-10-26T20:38:43.179Z,5.80
2022-10-26T20:41:16.086Z,6.50
2022-10-26T20:43:50.000Z,6.72
2022-10-26T20:46:26.626Z,5.97
2022-10-26T20:49:00.166Z,5.78
2022-10-26T20:51:47.599Z,5.35
2022-10-26T20:54:33.435Z,5.45
2022-10-26T20:57:08.411Z,5.78
2022-10-26T20:59:46.087Z,5.70
2022-10-26T21:02:18.386Z,5.93
2022-10-26T21:04:51.418Z,5.07
2022-10-26T21:07:23.848Z,4.10
2022-10-26T21:09:56.169Z,4.30
2022-10-26T21:12:28.495Z,4.57
2022-10-26T21:15:01.212Z,4.60
2022-10-26T21:17:33.931Z,13.32
2022-10-26T21:20:08.197Z,12.85
2022-10-26T21:22:40.539Z,52.17
2022-10-26T21:25:12.870Z,40.80
2022-10-26T21:27:45.217Z,33.85
2022-10-26T21:30:17.743Z,20.80
2022-10-26T21:32:50.642Z,13.80
2022-10-26T21:35:23.843Z,13.43
2022-10-26T21:37:56.283Z,13.07
2022-10-26T21:40:29.708Z,13.65
2022-10-26T21:43:02.060Z,8.85
2022-10-26T21:45:34.358Z,12.30
2022-10-26T21:48:06.768Z,6.10
2022-10-26T21:50:41.846Z,6.93
2022-10-26T21:53:14.187Z,4.85
2022-10-26T21:55:46.778Z,5.22
2022-10-26T21:58:19.082Z,4.57
2022-10-26T22:00:51.471Z,6.10
2022-10-26T22:03:23.907Z,6.60
2022-10-26T22:05:56.922Z,6.28
2022-10-26T22:08:29.875Z,5.97
2022-10-26T22:11:05.579Z,7.15
2022-10-26T22:13:37.922Z,7.57
2022-10-26T22:16:12.365Z,8.15
2022-10-26T22:18:45.718Z,10.00
2022-10-26T22:21:19.947Z,12.05
2022-10-26T22:23:52.865Z,9.25
2022-10-26T22:26:25.528Z,8.98
2022-10-26T22:28:57.914Z,7.43
2022-10-26T22:31:32.223Z,8.18
2022-10-26T22:34:07.839Z,6.90
2022-10-26T22:36:41.667Z,7.50
2022-10-26T22:39:14.020Z,6.47
2022-10-26T22:41:47.950Z,5.30
2022-10-26T22:44:20.348Z,4.03
2022-10-26T22:46:52.659Z,4.63
2022-10-26T22:49:25.042Z,3.60
2022-10-26T22:51:57.967Z,3.65
2022-10-26T22:54:30.375Z,2.90
2022-10-26T22:57:02.800Z,2.70
2022-10-26T22:59:35.198Z,4.57
2022-10-26T23:02:07.591Z,2.90
2022-10-26T23:04:40.042Z,3.10
2022-10-26T23:07:13.073Z,3.20
2022-10-26T23:09:45.404Z,2.70
2022-10-26T23:12:17.686Z,4.13
2022-10-26T23:14:49.980Z,6.00
2022-10-26T23:17:22.334Z,3.33
2022-10-26T23:19:56.039Z,4.22
2022-10-26T23:22:29.046Z,4.53
2022-10-26T23:25:01.455Z,4.85
2022-10-26T23:27:33.783Z,4.65
2022-10-26T23:30:07.446Z,4.28
2022-10-26T23:32:39.795Z,4.30
2022-10-26T23:35:12.303Z,3.65
2022-10-26T23:44:11.559Z,6.95
2022-10-26T23:46:44.030Z,7.20
2022-10-26T23:49:16.335Z,8.68
2022-10-26T23:51:48.651Z,8.20
2022-10-26T23:54:20.920Z,7.60
2022-10-26T23:56:53.231Z,7.65
2022-10-26T23:59:26.165Z,8.10
